Time;durP1;ratioP1;P1;durP2;ratioP2;P2;SDS_P1;SDS_P2;PMS_P1;PMS_P2;Temp;Humidity;BMP_temperature;BMP_pressure;BME280_temperature;BME280_humidity;BME280_pressure;Samples;Min_cycle;Max_cycle;Signal;HPM_P1;HPM_P2
2022/12/03 00:00:12;;;;;;;7.60;6.07;;;;;;;14.99;45.54;93356.47;4990072;28;20424;-87
2022/12/03 00:02:37;;;;;;;6.32;5.47;;;;;;;14.98;45.56;93346.81;4974152;28;20049;-87
2022/12/03 00:05:03;;;;;;;8.65;6.80;;;;;;;14.99;45.27;93342.13;4990325;28;20034;-86
2022/12/03 00:07:28;;;;;;;7.28;5.45;;;;;;;14.98;45.46;93338.66;4990265;28;20052;-86
2022/12/03 00:09:54;;;;;;;7.88;5.68;;;;;;;14.97;45.52;93341.84;4988799;28;20046;-87
2022/12/03 00:12:19;;;;;;;7.07;5.43;;;;;;;14.99;45.59;93351.03;4983224;28;20042;-86
2022/12/03 00:14:45;;;;;;;7.68;5.53;;;;;;;14.97;45.81;93342.59;5007602;28;20042;-87
2022/12/03 00:17:10;;;;;;;6.78;5.32;;;;;;;14.99;45.54;93340.13;4988026;28;20050;-87
2022/12/03 00:19:35;;;;;;;6.85;5.15;;;;;;;14.99;45.31;93345.59;4985143;28;20053;-86
2022/12/03 00:22:01;;;;;;;7.80;5.57;;;;;;;15.00;45.26;93349.03;4990356;28;20509;-86
2022/12/03 00:24:26;;;;;;;8.30;5.93;;;;;;;14.98;45.60;93352.25;4973059;28;20045;-86
2022/12/03 00:26:51;;;;;;;7.35;5.78;;;;;;;14.97;45.37;93342.59;4989095;28;20046;-86
2022/12/03 00:29:17;;;;;;;8.88;5.90;;;;;;;14.97;45.19;93348.03;5006514;28;20045;-87
2022/12/03 00:31:44;;;;;;;7.07;4.85;;;;;;;14.98;45.44;93337.91;4989126;28;20500;-87
2022/12/03 00:34:09;;;;;;;7.18;5.25;;;;;;;14.98;45.49;93344.09;4990551;28;20050;-86
2022/12/03 00:36:35;;;;;;;7.35;5.82;;;;;;;14.98;45.49;93354.97;4974230;28;20046;-87
2022/12/03 00:39:00;;;;;;;6.45;5.18;;;;;;;14.95;45.38;93355.94;4989785;28;20038;-87
2022/12/03 00:41:25;;;;;;;7.28;5.30;;;;;;;14.96;45.42;93349.28;4973064;28;20046;-86
2022/12/03 00:43:56;;;;;;;6.65;5.10;;;;;;;14.97;45.59;93352.75;4989921;28;20037;-87
2022/12/03 00:46:21;;;;;;;8.18;5.35;;;;;;;14.98;45.29;93359.69;4968272;28;20051;-87
2022/12/03 00:48:47;;;;;;;7.22;5.13;;;;;;;14.97;45.47;93347.31;4968059;28;20410;-87
2022/12/03 00:51:12;;;;;;;7.40;4.88;;;;;;;14.97;45.20;93345.31;4950583;28;20035;-87
2022/12/03 00:53:38;;;;;;;7.22;5.40;;;;;;;14.96;45.23;93346.56;4972968;28;20057;-87
2022/12/03 00:56:03;;;;;;;6.18;4.65;;;;;;;14.97;45.24;93355.47;4969525;28;20065;-87
2022/12/03 00:58:29;;;;;;;7.85;5.45;;;;;;;14.95;45.58;93344.31;4970343;28;20274;-87
2022/12/03 01:00:54;;;;;;;7.50;5.45;;;;;;;14.95;45.19;93353.22;5002194;28;20089;-87
2022/12/03 01:03:19;;;;;;;6.47;5.32;;;;;;;14.96;45.40;93348.53;4986383;28;20093;-87
2022/12/03 01:05:45;;;;;;;6.70;5.38;;;;;;;14.97;45.48;93347.31;4971005;28;20046;-87
2022/12/03 01:08:10;;;;;;;8.27;5.80;;;;;;;14.97;45.13;93347.31;4986387;28;20142;-87
2022/12/03 01:10:36;;;;;;;6.07;4.65;;;;;;;14.96;45.45;93343.09;4986822;28;20112;-86
2022/12/03 01:13:01;;;;;;;6.80;5.20;;;;;;;14.97;45.37;93352.75;4994090;28;20084;-87
2022/12/03 01:15:26;;;;;;;8.73;4.97;;;;;;;14.95;45.28;93355.94;4992911;28;20030;-87
2022/12/03 01:17:53;;;;;;;6.70;4.78;;;;;;;14.96;45.08;93360.16;4980203;28;20409;-86
2022/12/03 01:20:18;;;;;;;7.28;5.30;;;;;;;14.96;45.39;93353.97;5009305;28;20471;-87
2022/12/03 01:22:43;;;;;;;6.13;4.55;;;;;;;14.96;45.56;93362.16;4993206;28;20613;-87
2022/12/03 01:25:09;;;;;;;7.05;5.13;;;;;;;14.97;45.42;93360.91;4993410;28;20045;-86
2022/12/03 01:27:34;;;;;;;6.80;4.72;;;;;;;14.95;45.40;93355.22;4993654;28;20060;-87
2022/12/03 01:30:00;;;;;;;6.97;4.93;;;;;;;14.94;45.67;93356.47;4977080;28;20488;-87
2022/12/03 01:32:25;;;;;;;7.22;5.45;;;;;;;14.93;45.54;93347.56;4991988;28;20049;-86
2022/12/03 01:34:51;;;;;;;6.55;4.70;;;;;;;14.92;45.35;93346.06;4993596;28;20037;-87
2022/12/03 01:37:17;;;;;;;7.95;5.07;;;;;;;14.95;45.65;93350.50;4992400;28;20084;-87
2022/12/03 01:39:43;;;;;;;7.57;4.82;;;;;;;14.93;45.21;93350.28;4991519;28;20030;-86
2022/12/03 01:42:12;;;;;;;6.22;4.38;;;;;;;14.95;45.72;93352.50;5000028;28;20062;-86
2022/12/03 01:44:38;;;;;;;7.43;5.22;;;;;;;14.93;45.39;93355.72;4984672;28;20117;-86
2022/12/03 01:47:05;;;;;;;5.70;4.65;;;;;;;14.94;45.62;93359.91;4992674;28;20168;-86
2022/12/03 01:49:41;;;;;;;6.95;4.82;;;;;;;14.96;45.21;93351.25;4977273;28;20046;-86
2022/12/03 01:52:14;;;;;;;6.72;4.63;;;;;;;14.95;45.31;93355.22;5008049;28;20124;-87
2022/12/03 01:54:41;;;;;;;6.57;4.50;;;;;;;14.94;45.25;93354.47;4993823;28;20401;-87
2022/12/03 01:57:17;;;;;;;6.13;4.50;;;;;;;14.96;45.28;93353.97;4991954;28;20483;-87
2022/12/03 01:59:42;;;;;;;6.57;4.43;;;;;;;14.94;45.08;93349.03;4993296;28;20063;-86
2022/12/03 02:02:16;;;;;;;6.10;4.47;;;;;;;14.95;45.47;93352.50;5007817;28;20555;-87
2022/12/03 02:04:41;;;;;;;6.97;4.60;;;;;;;14.93;45.46;93353.00;4994117;28;20073;-87
2022/12/03 02:07:20;;;;;;;6.63;4.35;;;;;;;14.96;45.35;93348.53;5007869;28;20093;-86
2022/12/03 02:09:45;;;;;;;6.72;4.95;;;;;;;14.95;45.29;93347.78;5009124;28;20097;-86
2022/12/03 02:12:11;;;;;;;6.50;4.43;;;;;;;14.94;45.16;93351.03;4989681;28;20038;-87
2022/12/03 02:14:36;;;;;;;6.13;4.35;;;;;;;14.94;45.24;93349.03;4993261;28;20400;-86
2022/12/03 02:17:02;;;;;;;6.43;4.63;;;;;;;14.92;45.27;93346.06;4992290;28;20038;-87
2022/12/03 02:19:28;;;;;;;6.32;4.40;;;;;;;14.95;45.12;93349.75;4981770;28;20038;-86
2022/12/03 02:22:10;;;;;;;7.72;5.32;;;;;;;14.95;45.38;93349.75;4975968;28;20640;-87
2022/12/03 02:24:41;;;;;;;6.70;4.85;;;;;;;14.94;45.25;93345.59;5009138;28;20085;-87
2022/12/03 02:27:22;;;;;;;5.82;4.32;;;;;;;14.93;45.29;93349.53;4979577;28;20531;-87
2022/12/03 02:29:50;;;;;;;6.03;4.28;;;;;;;14.95;45.38;93339.63;4992189;28;20113;-87
2022/12/03 02:32:15;;;;;;;6.03;4.63;;;;;;;14.94;45.28;93340.13;4990681;28;20044;-87
2022/12/03 02:34:43;;;;;;;6.80;5.03;;;;;;;14.93;45.19;93335.94;4998449;28;20041;-87
2022/12/03 02:37:10;;;;;;;6.28;4.38;;;;;;;14.92;45.23;93339.88;4991120;28;20038;-86
2022/12/03 02:39:36;;;;;;;5.10;4.20;;;;;;;14.93;45.15;93335.94;4992385;28;20248;-87
2022/12/03 02:44:46;;;;;;;7.32;4.70;;;;;;;14.91;45.34;93339.13;4989413;28;20037;-86
2022/12/03 02:47:11;;;;;;;6.43;4.32;;;;;;;14.90;45.03;93343.09;4986637;28;20042;-87
2022/12/03 02:49:36;;;;;;;5.03;4.05;;;;;;;14.92;45.30;93340.63;4992530;28;20053;-86
2022/12/03 02:52:02;;;;;;;6.45;4.70;;;;;;;14.91;45.34;93349.28;4974134;28;20041;-87
2022/12/03 02:54:28;;;;;;;4.95;3.63;;;;;;;14.90;45.27;93345.06;4992621;28;20516;-87
2022/12/03 02:56:53;;;;;;;5.95;4.40;;;;;;;14.90;45.32;93345.06;4974848;28;20169;-86
2022/12/03 02:59:19;;;;;;;6.70;4.18;;;;;;;14.90;45.33;93337.66;4975036;28;20034;-87
2022/12/03 03:01:44;;;;;;;5.68;4.32;;;;;;;14.93;45.33;93344.84;4991589;28;20071;-87
2022/12/03 03:04:10;;;;;;;5.68;4.18;;;;;;;14.89;45.21;93344.31;4991157;28;20065;-86
2022/12/03 03:06:35;;;;;;;6.95;4.55;;;;;;;14.90;45.51;93339.63;4974928;28;20045;-87
2022/12/03 03:09:01;;;;;;;5.22;3.92;;;;;;;14.92;45.30;93339.88;5007313;28;20120;-86
2022/12/03 03:11:27;;;;;;;5.18;3.97;;;;;;;14.90;45.47;93334.94;4987958;28;20679;-87
2022/12/03 03:13:52;;;;;;;5.38;4.15;;;;;;;14.90;45.48;93345.81;4972014;28;20062;-86
2022/12/03 03:16:18;;;;;;;5.47;3.90;;;;;;;14.89;45.35;93338.88;4971148;28;20046;-87
2022/12/03 03:18:43;;;;;;;5.43;4.40;;;;;;;14.89;45.35;93329.97;4975264;28;20139;-87
2022/12/03 03:21:08;;;;;;;5.47;3.85;;;;;;;14.91;45.52;93349.28;4985531;28;20050;-87
2022/12/03 03:23:34;;;;;;;4.75;3.78;;;;;;;14.89;45.43;93347.03;5007893;28;20066;-87
2022/12/03 03:26:06;;;;;;;5.22;3.90;;;;;;;14.91;45.07;93352.75;5007474;28;20038;-87
2022/12/03 03:28:34;;;;;;;6.30;3.83;;;;;;;14.91;45.41;93347.31;5023067;28;20046;-86
2022/12/03 03:30:59;;;;;;;6.40;4.45;;;;;;;14.90;45.48;93342.34;4974451;28;20084;-87
2022/12/03 03:33:25;;;;;;;5.18;3.85;;;;;;;14.90;45.23;93345.81;4989887;28;20058;-87
2022/12/03 03:35:50;;;;;;;6.25;4.53;;;;;;;14.90;45.29;93350.50;4990682;28;20054;-87
2022/12/03 03:38:16;;;;;;;5.25;3.65;;;;;;;14.87;45.10;93351.50;5006955;28;20034;-86
2022/12/03 03:40:42;;;;;;;4.75;3.70;;;;;;;14.88;45.17;93342.09;4985546;28;20049;-87
2022/12/03 03:43:07;;;;;;;5.70;3.72;;;;;;;14.88;45.01;93339.38;4995791;28;20031;-86
2022/12/03 03:45:33;;;;;;;6.90;4.60;;;;;;;14.89;45.36;93332.69;4983808;28;20112;-87
2022/12/03 03:47:58;;;;;;;6.13;3.85;;;;;;;14.89;45.22;93338.13;4978894;28;20251;-87
2022/12/03 03:50:23;;;;;;;5.70;4.40;;;;;;;14.87;45.17;93346.78;4989786;28;20042;-87
2022/12/03 03:52:49;;;;;;;4.50;3.72;;;;;;;14.87;45.23;93335.16;4990692;28;20030;-86
2022/12/03 03:55:14;;;;;;;6.00;4.00;;;;;;;14.88;45.23;93331.94;4974616;28;20053;-87
2022/12/03 03:57:40;;;;;;;5.78;3.97;;;;;;;14.90;45.10;93334.19;4990423;28;20037;-86
2022/12/03 04:00:07;;;;;;;4.70;3.70;;;;;;;14.90;45.35;93339.63;4990744;28;20489;-87
2022/12/03 04:02:33;;;;;;;5.20;3.55;;;;;;;14.89;45.03;93333.44;5006777;28;20050;-86
2022/12/03 04:04:58;;;;;;;5.53;4.20;;;;;;;14.88;45.17;93320.31;5006697;28;20053;-87
2022/12/03 04:07:24;;;;;;;4.93;3.55;;;;;;;14.87;45.32;93322.28;4989995;28;20068;-87
2022/12/03 04:09:49;;;;;;;4.78;3.85;;;;;;;14.86;45.11;93307.19;4990047;28;20088;-86
2022/12/03 04:14:58;;;;;;;6.07;3.90;;;;;;;14.86;45.26;93315.38;4973849;28;20097;-87
2022/12/03 04:17:24;;;;;;;4.05;3.17;;;;;;;14.86;45.33;93317.34;4970574;28;20501;-87
2022/12/03 04:19:49;;;;;;;5.20;3.63;;;;;;;14.88;45.24;93317.59;4986424;28;20549;-87
2022/12/03 04:30:34;;;;;;;4.72;3.40;;;;;;;14.86;45.36;93334.41;4978642;28;20051;-87
2022/12/03 04:35:44;;;;;;;4.95;3.35;;;;;;;14.87;45.20;93333.19;4946442;28;20050;-87
2022/12/03 04:38:10;;;;;;;5.90;3.67;;;;;;;14.88;45.11;93340.13;4949158;28;20520;-87
2022/12/03 04:43:20;;;;;;;5.57;3.88;;;;;;;14.88;45.42;93342.09;4964432;28;20050;-87
2022/12/03 04:45:45;;;;;;;5.78;3.95;;;;;;;14.86;45.31;93339.09;4946641;28;20039;-87
2022/12/03 04:48:11;;;;;;;6.10;3.97;;;;;;;14.87;45.23;93332.44;4948242;28;20518;-86
2022/12/03 04:50:36;;;;;;;5.63;3.72;;;;;;;14.85;45.34;93332.91;4946019;28;20047;-86
2022/12/03 04:53:02;;;;;;;5.53;3.55;;;;;;;14.85;45.17;93340.34;4947099;28;20035;-87
2022/12/03 04:55:28;;;;;;;5.60;3.80;;;;;;;14.86;45.14;93334.41;4946283;28;20418;-87
2022/12/03 04:57:53;;;;;;;5.18;3.58;;;;;;;14.85;44.97;93338.38;4958333;28;20540;-86
2022/12/03 05:00:19;;;;;;;4.28;3.15;;;;;;;14.89;45.03;93333.44;4965351;28;20065;-87
2022/12/03 05:02:44;;;;;;;4.43;3.35;;;;;;;14.88;45.32;93340.13;4965992;28;20388;-88
2022/12/03 05:05:10;;;;;;;3.97;3.08;;;;;;;14.88;44.92;93344.81;4964944;28;20043;-86
2022/12/03 05:07:35;;;;;;;4.75;3.50;;;;;;;14.87;45.05;93340.59;4972836;28;20038;-86
2022/12/03 05:10:01;;;;;;;5.78;3.80;;;;;;;14.86;45.06;93334.41;4989531;28;20497;-87
2022/12/03 05:12:26;;;;;;;4.53;3.50;;;;;;;14.87;45.11;93332.44;4988437;28;20042;-86
2022/12/03 05:14:51;;;;;;;3.85;3.30;;;;;;;14.87;45.06;93325.00;5005716;28;20223;-86
2022/12/03 05:17:17;;;;;;;4.53;3.13;;;;;;;14.88;44.95;93329.22;4988095;28;20045;-87
2022/12/03 05:22:26;;;;;;;4.43;3.42;;;;;;;14.86;45.14;93326.25;4991571;28;20159;-87
2022/12/03 05:24:52;;;;;;;4.70;3.60;;;;;;;14.86;45.17;93325.50;4989944;28;20496;-87
2022/12/03 05:27:17;;;;;;;5.28;3.65;;;;;;;14.86;45.13;93322.78;4988713;28;20045;-87
2022/12/03 05:29:42;;;;;;;5.03;3.47;;;;;;;14.84;45.17;93320.53;4973418;28;20042;-87
2022/12/03 05:32:08;;;;;;;4.20;3.15;;;;;;;14.84;45.25;93326.00;4988753;28;20042;-86
2022/12/03 05:34:33;;;;;;;4.30;3.40;;;;;;;14.86;45.32;93328.22;5012349;28;20065;-86
2022/12/03 05:36:59;;;;;;;4.28;3.13;;;;;;;14.83;45.33;93329.94;4989145;28;20042;-87
2022/12/03 05:39:24;;;;;;;4.18;3.40;;;;;;;14.83;45.27;93327.22;4992499;28;20042;-86
2022/12/03 05:44:33;;;;;;;4.28;3.08;;;;;;;14.86;45.43;93323.53;4993988;28;20092;-87
2022/12/03 05:46:59;;;;;;;4.57;3.10;;;;;;;14.83;45.04;93313.63;5021607;28;20045;-86
2022/12/03 05:49:24;;;;;;;4.30;3.00;;;;;;;14.82;45.19;93312.13;5020892;28;20045;-86
2022/12/03 05:51:49;;;;;;;4.00;2.90;;;;;;;14.84;45.25;93315.09;4992744;28;20045;-86
2022/12/03 05:54:15;;;;;;;4.85;3.63;;;;;;;14.83;45.15;93319.06;4988482;28;20041;-86
2022/12/03 05:56:40;;;;;;;3.53;2.88;;;;;;;14.84;45.18;93311.63;4992559;28;20456;-86
2022/12/03 05:59:06;;;;;;;5.22;3.53;;;;;;;14.83;45.38;93319.06;4999306;28;20029;-86
2022/12/03 06:01:31;;;;;;;4.30;3.22;;;;;;;14.83;45.12;93321.78;5012372;28;20052;-86
2022/12/03 06:03:56;;;;;;;3.95;3.00;;;;;;;14.82;45.27;93319.53;5012579;28;20500;-87
2022/12/03 06:06:22;;;;;;;4.53;3.00;;;;;;;14.81;44.83;93321.53;5011686;28;20053;-86
2022/12/03 06:08:47;;;;;;;3.95;3.13;;;;;;;14.82;45.11;93316.81;5013459;28;20088;-87
2022/12/03 06:11:13;;;;;;;4.55;3.00;;;;;;;14.82;45.23;93317.56;4978033;28;20041;-87
2022/12/03 06:13:38;;;;;;;4.10;3.13;;;;;;;14.80;44.99;93309.16;5012194;28;20275;-87
2022/12/03 06:16:04;;;;;;;4.85;3.42;;;;;;;14.81;45.01;93318.81;4995949;28;20396;-86
2022/12/03 06:18:29;;;;;;;4.00;2.83;;;;;;;14.80;45.12;93314.59;4997211;28;20041;-87
2022/12/03 06:20:54;;;;;;;3.97;3.03;;;;;;;14.82;45.21;93316.81;4995607;28;20045;-88
2022/12/03 06:23:20;;;;;;;4.35;3.38;;;;;;;14.81;45.00;93326.22;5010848;28;20091;-87
2022/12/03 06:25:45;;;;;;;3.53;2.72;;;;;;;14.83;45.21;93321.78;5011742;28;20093;-86
2022/12/03 06:28:11;;;;;;;4.65;3.03;;;;;;;14.82;44.99;93322.25;5011358;28;20056;-87
2022/12/03 06:30:36;;;;;;;4.25;3.30;;;;;;;14.85;45.27;93310.41;5012028;28;20081;-87
2022/12/03 06:33:01;;;;;;;4.35;2.90;;;;;;;14.83;44.81;93321.78;5011613;28;20034;-86
2022/12/03 06:35:27;;;;;;;4.30;2.88;;;;;;;14.81;44.96;93305.19;5010046;28;20041;-87
2022/12/03 06:37:52;;;;;;;4.25;2.88;;;;;;;14.81;44.99;93301.72;5011915;28;20404;-86
2022/12/03 06:40:18;;;;;;;4.22;3.08;;;;;;;14.81;45.02;93299.75;4993673;28;20077;-86
2022/12/03 06:42:43;;;;;;;3.55;2.78;;;;;;;14.83;44.93;93304.72;5009328;28;20846;-87
2022/12/03 06:45:09;;;;;;;4.97;3.30;;;;;;;14.79;45.11;93298.75;5011105;28;20037;-87
2022/12/03 06:47:35;;;;;;;3.58;2.92;;;;;;;14.80;45.01;93311.13;5010515;28;20128;-86
2022/12/03 06:50:00;;;;;;;3.53;2.60;;;;;;;14.82;44.94;93317.56;5011888;28;20045;-86
2022/12/03 06:52:26;;;;;;;4.28;2.88;;;;;;;14.80;45.08;93311.13;4994879;28;20559;-86
2022/12/03 06:54:51;;;;;;;4.32;2.80;;;;;;;14.79;45.08;93307.66;5010975;28;20504;-87
2022/12/03 06:57:17;;;;;;;3.55;2.47;;;;;;;14.81;44.94;93304.44;5010660;28;20045;-87
2022/12/03 06:59:42;;;;;;;3.28;2.50;;;;;;;14.79;45.11;93304.19;5009021;28;20041;-87
2022/12/03 07:02:08;;;;;;;4.47;3.00;;;;;;;14.79;45.29;93306.91;5001664;28;20052;-86
2022/12/03 07:04:33;;;;;;;4.38;2.92;;;;;;;14.79;45.02;93313.09;5028824;28;20026;-87
2022/12/03 07:06:59;;;;;;;3.00;2.33;;;;;;;14.81;44.93;93312.63;5010520;28;20048;-87
2022/12/03 07:09:24;;;;;;;3.35;2.50;;;;;;;14.80;45.07;93317.31;5010610;28;20095;-86
2022/12/03 07:11:50;;;;;;;4.03;2.75;;;;;;;14.79;45.18;93323.97;5010619;28;20045;-86
2022/12/03 07:14:15;;;;;;;4.50;3.10;;;;;;;14.80;45.07;93335.63;5010459;28;20030;-86
2022/12/03 07:16:42;;;;;;;4.45;3.25;;;;;;;14.79;44.86;93325.97;5011259;28;20044;-86
2022/12/03 07:19:07;;;;;;;3.92;2.55;;;;;;;14.81;45.09;93324.25;5000707;28;20085;-87
2022/12/03 07:21:32;;;;;;;3.65;2.60;;;;;;;14.81;45.00;93313.34;4974624;28;20050;-86
2022/12/03 07:23:58;;;;;;;3.90;2.80;;;;;;;14.79;45.27;93312.34;4975219;28;20043;-87
2022/12/03 07:26:23;;;;;;;3.28;2.60;;;;;;;14.79;45.23;93309.63;4959588;28;20038;-86
2022/12/03 07:28:49;;;;;;;3.55;2.90;;;;;;;14.80;45.00;93303.72;4988364;28;20042;-87
2022/12/03 07:31:14;;;;;;;4.03;2.90;;;;;;;14.79;45.02;93304.94;4971075;28;20101;-87
2022/12/03 07:33:40;;;;;;;3.53;2.72;;;;;;;14.80;44.90;93302.97;4969217;28;20038;-86
2022/12/03 07:36:06;;;;;;;3.20;2.58;;;;;;;14.81;45.22;93307.16;4953747;28;20086;-86
2022/12/03 07:38:31;;;;;;;3.83;2.80;;;;;;;14.82;45.20;93303.22;4970625;28;20077;-86
2022/12/03 07:40:56;;;;;;;3.45;2.40;;;;;;;14.80;44.87;93305.69;4953330;28;20054;-86
2022/12/03 07:43:22;;;;;;;4.15;2.90;;;;;;;14.80;45.03;93303.72;4953670;28;20085;-87
2022/12/03 07:45:47;;;;;;;4.22;3.30;;;;;;;14.80;45.17;93302.97;4953587;28;20050;-87
2022/12/03 07:48:13;;;;;;;4.20;2.80;;;;;;;14.79;45.23;93296.78;4953408;28;20042;-87
2022/12/03 07:50:38;;;;;;;5.00;3.28;;;;;;;14.79;45.03;93298.75;4950812;28;20054;-86
2022/12/03 07:53:04;;;;;;;3.85;2.58;;;;;;;14.79;44.93;93296.03;4944198;28;20038;-87
2022/12/03 07:55:30;;;;;;;3.53;2.40;;;;;;;14.78;44.63;93299.97;4953112;28;20046;-86
2022/12/03 07:57:55;;;;;;;3.65;2.10;;;;;;;14.80;44.99;93292.06;4969791;28;20089;-86
2022/12/03 08:00:21;;;;;;;3.65;2.55;;;;;;;14.79;45.01;93293.31;4950127;28;20039;-87
2022/12/03 08:02:46;;;;;;;3.78;2.60;;;;;;;14.80;45.10;93300.97;4955661;28;20069;-87
2022/12/03 08:05:11;;;;;;;3.53;2.55;;;;;;;14.80;45.13;93303.72;4967503;28;20045;-87
2022/12/03 08:07:37;;;;;;;3.03;2.28;;;;;;;14.80;45.07;93303.72;4974733;28;20560;-87
2022/12/03 08:10:03;;;;;;;3.78;2.65;;;;;;;14.80;44.86;93290.09;4972894;28;20050;-86
2022/12/03 08:12:47;;;;;;;4.45;3.00;;;;;;;14.79;44.86;93304.19;5008466;28;20042;-87
2022/12/03 08:15:14;;;;;;;3.65;2.60;;;;;;;14.79;45.08;93310.38;4976151;28;20042;-87
2022/12/03 08:17:41;;;;;;;3.15;2.53;;;;;;;14.81;44.88;93304.44;4994478;28;20037;-87
2022/12/03 08:20:16;;;;;;;3.10;2.22;;;;;;;14.80;44.52;93314.59;4975385;28;20042;-87
2022/12/03 08:22:42;;;;;;;3.63;2.80;;;;;;;14.79;44.92;93313.09;4997340;28;20045;-86
2022/12/03 08:25:18;;;;;;;3.30;2.38;;;;;;;14.80;45.19;93303.72;4992391;28;20029;-86
2022/12/03 08:27:44;;;;;;;3.25;2.58;;;;;;;14.80;45.17;93305.69;5009873;28;20049;-87
2022/12/03 08:30:11;;;;;;;3.75;2.67;;;;;;;14.81;44.88;93296.28;5009295;28;20033;-87
2022/12/03 08:32:37;;;;;;;3.05;2.40;;;;;;;14.80;44.95;93300.25;4993297;28;20041;-87
2022/12/03 08:35:14;;;;;;;2.78;2.10;;;;;;;14.79;45.01;93298.75;5008349;28;20048;-87
2022/12/03 08:37:39;;;;;;;5.40;2.47;;;;;;;14.79;44.97;93299.50;5010034;28;20072;-88
2022/12/03 08:40:20;;;;;;;2.90;2.00;;;;;;;14.81;45.31;93301.72;5025675;28;20029;-86
2022/12/03 08:42:46;;;;;;;5.85;2.20;;;;;;;14.78;44.82;93303.44;5002182;28;20553;-86
2022/12/03 08:45:38;;;;;;;4.15;2.50;;;;;;;14.81;44.83;93307.91;4980120;28;20042;-87
2022/12/03 08:48:22;;;;;;;3.25;2.45;;;;;;;14.81;45.15;93304.44;5005817;28;20065;-86
2022/12/03 08:50:47;;;;;;;3.00;2.22;;;;;;;14.80;45.03;93306.44;5026002;28;20038;-86
2022/12/03 08:53:13;;;;;;;3.75;2.85;;;;;;;14.81;44.75;93302.47;5008787;28;20154;-87
2022/12/03 08:55:45;;;;;;;3.97;2.53;;;;;;;14.82;44.85;93305.94;5008790;28;20447;-87
2022/12/03 08:58:22;;;;;;;3.72;2.72;;;;;;;14.79;44.94;93312.34;5026103;28;20060;-87
2022/12/03 09:00:51;;;;;;;2.55;1.83;;;;;;;14.81;44.66;93304.44;5009076;28;20628;-87
2022/12/03 09:03:17;;;;;;;3.00;2.13;;;;;;;14.80;44.88;93298.25;5009045;28;20488;-86
2022/12/03 09:05:42;;;;;;;3.28;2.10;;;;;;;14.79;45.04;93306.91;5008928;28;20033;-86
2022/12/03 09:08:08;;;;;;;2.35;1.83;;;;;;;14.80;44.97;93308.41;5008054;28;20559;-87
2022/12/03 09:10:33;;;;;;;3.97;2.40;;;;;;;14.79;45.10;93312.34;5009399;28;20044;-87
2022/12/03 09:12:59;;;;;;;3.58;2.67;;;;;;;14.81;45.00;93309.88;5009183;28;20111;-86
2022/12/03 09:15:24;;;;;;;3.88;2.15;;;;;;;14.81;45.07;93309.88;5007737;28;20095;-86
2022/12/03 09:17:49;;;;;;;3.28;2.40;;;;;;;14.81;44.65;93307.91;5009555;28;20115;-86
2022/12/03 09:20:15;;;;;;;4.20;2.67;;;;;;;14.82;45.00;93317.56;4973019;28;20477;-88
2022/12/03 09:22:40;;;;;;;3.22;2.35;;;;;;;14.81;44.88;93315.34;4990426;28;20077;-86
2022/12/03 09:25:06;;;;;;;2.50;1.80;;;;;;;14.81;44.68;93299.75;4988850;28;20516;-87
2022/12/03 09:27:32;;;;;;;3.25;2.10;;;;;;;14.81;44.85;93302.47;5007941;28;20566;-87
2022/12/03 09:29:57;;;;;;;2.30;2.10;;;;;;;14.81;44.95;93304.44;5012440;28;20104;-87
2022/12/03 09:32:22;;;;;;;3.45;2.30;;;;;;;14.82;44.87;93311.38;5012380;28;20046;-86
2022/12/03 09:34:48;;;;;;;2.55;2.30;;;;;;;14.81;44.93;93299.00;5012894;28;20404;-87
2022/12/03 09:37:13;;;;;;;2.83;2.03;;;;;;;14.85;44.94;93296.81;5011895;28;20076;-86
2022/12/03 09:39:39;;;;;;;3.72;2.30;;;;;;;14.82;45.08;93293.06;5012840;28;20034;-87
2022/12/03 09:42:04;;;;;;;3.85;2.38;;;;;;;14.85;44.85;93288.63;5006675;28;20038;-87
2022/12/03 09:44:31;;;;;;;2.90;2.28;;;;;;;14.85;44.77;93288.63;4995558;28;20466;-86
2022/12/03 09:46:58;;;;;;;2.90;2.20;;;;;;;14.83;44.77;93291.84;5005535;28;20041;-87
2022/12/03 09:49:24;;;;;;;3.08;2.20;;;;;;;14.81;44.82;93285.41;5012640;28;20030;-87
2022/12/03 09:51:50;;;;;;;2.95;2.15;;;;;;;14.82;44.95;93286.88;4996685;28;20068;-86
2022/12/03 09:54:21;;;;;;;3.13;2.05;;;;;;;14.84;45.03;93274.28;5011812;28;20057;-86
2022/12/03 09:56:46;;;;;;;5.40;2.10;;;;;;;14.83;45.05;93275.50;5012633;28;20495;-87
2022/12/03 09:59:12;;;;;;;3.30;2.38;;;;;;;14.84;44.87;93273.53;4995835;28;20034;-86
2022/12/03 10:01:38;;;;;;;2.88;2.13;;;;;;;14.84;45.05;93278.97;5012223;28;20488;-86
2022/12/03 10:04:03;;;;;;;3.40;2.28;;;;;;;14.82;44.94;93274.03;5029013;28;20068;-87
2022/12/03 10:06:29;;;;;;;2.97;2.00;;;;;;;14.83;44.77;93272.06;5011967;28;20033;-87
2022/12/03 10:08:54;;;;;;;2.65;2.08;;;;;;;14.83;44.87;93277.50;5011969;28;20125;-87
2022/12/03 10:11:21;;;;;;;3.80;2.22;;;;;;;14.82;45.08;93265.88;5005015;28;20038;-86
2022/12/03 10:13:47;;;;;;;3.72;2.78;;;;;;;14.83;45.09;93261.91;4976716;28;20096;-87
2022/12/03 10:16:16;;;;;;;3.38;2.30;;;;;;;14.84;44.82;93263.41;4965081;28;20078;-86
2022/12/03 10:18:48;;;;;;;2.40;1.98;;;;;;;14.85;44.86;93266.88;4965307;28;20393;-87
2022/12/03 10:21:24;;;;;;;2.35;1.90;;;;;;;14.85;44.87;93258.69;4986874;28;20038;-87
2022/12/03 10:24:18;;;;;;;3.30;2.30;;;;;;;14.85;44.89;93255.97;4987645;28;20042;-87
2022/12/03 10:26:44;;;;;;;3.13;1.92;;;;;;;14.83;44.80;93259.19;4975729;28;20051;-86
2022/12/03 10:29:13;;;;;;;3.17;2.10;;;;;;;14.84;44.84;93251.78;4951650;28;20054;-87
2022/12/03 10:31:38;;;;;;;3.03;2.00;;;;;;;14.82;44.55;93249.53;4973315;28;20058;-87
2022/12/03 10:34:03;;;;;;;3.15;2.08;;;;;;;14.83;44.90;93253.75;4968058;28;20219;-86
2022/12/03 10:36:29;;;;;;;3.95;1.70;;;;;;;14.84;44.96;93257.97;4973761;28;20453;-87
2022/12/03 10:39:13;;;;;;;2.75;1.88;;;;;;;14.86;45.05;93254.75;4987100;28;20061;-87
2022/12/03 10:41:40;;;;;;;3.38;2.65;;;;;;;14.85;45.13;93245.09;4985903;28;20619;-87
2022/12/03 10:44:19;;;;;;;3.38;2.60;;;;;;;14.85;44.70;93248.56;4967742;28;20039;-86
2022/12/03 10:46:45;;;;;;;6.90;2.40;;;;;;;14.85;44.97;93251.28;4996414;28;20041;-86
2022/12/03 10:49:17;;;;;;;2.75;1.98;;;;;;;14.85;45.18;93242.38;4986700;28;20038;-86
2022/12/03 10:51:43;;;;;;;3.30;1.92;;;;;;;14.85;44.79;93242.38;4978506;28;20532;-87
2022/12/03 10:54:21;;;;;;;3.30;1.95;;;;;;;14.85;45.16;93234.94;4973832;28;20086;-87
2022/12/03 10:56:48;;;;;;;2.72;2.10;;;;;;;14.85;45.01;93231.50;4990801;28;20069;-87
2022/12/03 10:59:25;;;;;;;3.50;2.22;;;;;;;14.86;44.96;93241.13;4973129;28;20048;-87
2022/12/03 11:01:50;;;;;;;2.72;1.88;;;;;;;14.84;45.28;93238.91;4990883;28;20137;-86
2022/12/03 11:04:19;;;;;;;2.47;1.70;;;;;;;14.86;45.12;93238.41;4957795;28;20468;-87
2022/12/03 11:06:45;;;;;;;3.72;2.38;;;;;;;14.87;44.91;93234.47;5006349;28;20136;-87
2022/12/03 11:09:19;;;;;;;3.08;1.80;;;;;;;14.85;44.85;93234.94;4973459;28;20042;-86
2022/12/03 11:11:45;;;;;;;3.08;2.28;;;;;;;14.85;44.95;93240.41;4958581;28;20095;-87
2022/12/03 11:14:10;;;;;;;3.35;2.30;;;;;;;14.87;44.62;93229.75;4989126;28;20444;-87
2022/12/03 11:16:38;;;;;;;3.28;1.85;;;;;;;14.87;44.97;93235.22;4990157;28;20042;-87
2022/12/03 11:19:34;;;;;;;7.00;2.72;;;;;;;14.88;45.04;93233.97;4995640;28;20040;-86
2022/12/03 11:22:03;;;;;;;10.85;2.10;;;;;;;14.88;44.76;93231.25;4993324;28;20046;-86
2022/12/03 11:24:29;;;;;;;3.33;2.05;;;;;;;14.86;44.88;93217.38;5019720;28;20119;-87
2022/12/03 11:26:54;;;;;;;2.70;1.92;;;;;;;14.88;44.85;93225.81;5027052;28;20049;-87
2022/12/03 11:29:45;;;;;;;3.15;2.20;;;;;;;14.90;44.83;93222.59;5028094;28;20061;-87
2022/12/03 11:32:23;;;;;;;;;;;;;;;14.93;44.98;93224.34;5027235;28;20052;-88
2022/12/03 11:34:49;;;;;;;4.13;2.40;;;;;;;14.87;45.02;93224.31;5043615;28;20441;-87
2022/12/03 11:37:14;;;;;;;3.45;2.17;;;;;;;14.86;45.10;93224.81;4991821;28;20038;-86
2022/12/03 11:39:50;;;;;;;3.22;1.83;;;;;;;14.88;44.87;93222.34;5007509;28;20492;-87
2022/12/03 11:42:27;;;;;;;2.88;1.85;;;;;;;14.88;44.90;93223.09;5009678;28;20087;-87
2022/12/03 11:45:01;;;;;;;6.40;2.10;;;;;;;14.87;44.96;93223.56;5023722;28;20061;-88
2022/12/03 11:47:27;;;;;;;4.20;1.90;;;;;;;14.86;44.99;93213.94;5010557;28;20056;-87
2022/12/03 11:49:52;;;;;;;3.50;2.22;;;;;;;14.86;44.90;93214.66;4994247;28;20030;-87
2022/12/03 11:52:25;;;;;;;4.60;2.70;;;;;;;14.87;45.04;93218.88;4993216;28;20524;-88
2022/12/03 11:54:58;;;;;;;3.45;2.00;;;;;;;14.88;44.75;93214.91;5010740;28;20042;-87
2022/12/03 11:57:31;;;;;;;2.90;1.80;;;;;;;14.87;44.83;93208.00;5010020;28;20120;-87